Time;durP1;ratioP1;P1;durP2;ratioP2;P2;SDS_P1;SDS_P2;PMS_P1;PMS_P2;Temp;Humidity;BMP_temperature;BMP_pressure;BME280_temperature;BME280_humidity;BME280_pressure;Samples;Min_cycle;Max_cycle;Signal;HPM_P1;HPM_P2
2022/04/14 00:01:02;;;;;;;3.95;3.13;;;;;;;6.17;49.82;95190.19;5097068;27;20027;-69
2022/04/14 00:03:27;;;;;;;5.55;3.40;;;;;;;6.07;50.37;95181.34;5132419;27;20027;-70
2022/04/14 00:05:53;;;;;;;4.53;3.33;;;;;;;5.98;51.13;95182.72;5131113;27;20031;-69
2022/04/14 00:08:18;;;;;;;5.22;2.97;;;;;;;5.96;51.31;95184.53;5131225;27;20027;-69
2022/04/14 00:10:43;;;;;;;4.50;2.83;;;;;;;5.81;51.46;95181.09;5132323;27;20416;-69
2022/04/14 00:13:09;;;;;;;5.25;3.40;;;;;;;5.66;52.17;95169.94;5132243;27;20508;-69
2022/04/14 00:15:34;;;;;;;6.93;3.42;;;;;;;5.69;52.46;95182.63;5132817;27;20042;-70
2022/04/14 00:18:00;;;;;;;5.00;3.38;;;;;;;5.66;52.88;95182.00;5113873;27;20031;-69
2022/04/14 00:20:25;;;;;;;5.47;3.63;;;;;;;5.69;52.43;95182.63;5131155;27;20023;-70
2022/04/14 00:22:51;;;;;;;6.40;3.58;;;;;;;5.74;52.54;95183.22;5130718;27;20035;-70
2022/04/14 00:25:17;;;;;;;5.85;3.50;;;;;;;5.68;52.55;95169.81;5131114;27;20031;-69
2022/04/14 00:27:42;;;;;;;6.20;3.38;;;;;;;5.55;52.61;95143.94;5130808;27;20066;-69
2022/04/14 00:30:08;;;;;;;6.18;3.90;;;;;;;5.53;52.90;95156.91;5113909;27;20052;-69
2022/04/14 00:32:34;;;;;;;5.72;4.00;;;;;;;5.48;53.20;95153.75;5112821;27;20565;-69
2022/04/14 00:35:00;;;;;;;5.88;3.80;;;;;;;5.44;53.57;95167.75;5128960;27;20019;-69
2022/04/14 00:37:25;;;;;;;5.35;3.78;;;;;;;5.33;53.16;95152.06;5131809;27;20500;-69
2022/04/14 00:39:51;;;;;;;6.93;4.05;;;;;;;5.40;53.57;95161.09;5130835;27;20027;-69
2022/04/14 00:42:16;;;;;;;5.70;3.97;;;;;;;5.33;53.72;95160.63;5130395;27;20031;-70
2022/04/14 00:44:42;;;;;;;4.90;3.45;;;;;;;5.25;53.49;95159.41;5132123;27;20473;-69
2022/04/14 00:47:07;;;;;;;5.20;3.60;;;;;;;5.33;53.53;95163.19;5113495;28;20470;-69
2022/04/14 00:49:36;;;;;;;4.93;3.55;;;;;;;5.32;53.27;95161.56;5130707;28;20023;-69
2022/04/14 00:52:01;;;;;;;4.75;3.28;;;;;;;5.29;53.30;95169.47;5113403;28;20413;-69
2022/04/14 00:54:30;;;;;;;5.05;3.63;;;;;;;5.31;53.47;95170.19;5130513;28;20110;-69
2022/04/14 00:56:58;;;;;;;6.00;3.50;;;;;;;5.29;53.36;95177.19;5113889;28;20421;-69
2022/04/14 00:59:24;;;;;;;5.30;3.50;;;;;;;5.22;53.53;95175.84;5130631;28;20028;-69
2022/04/14 01:01:50;;;;;;;5.47;3.50;;;;;;;5.21;53.45;95175.94;5113303;28;20027;-69
2022/04/14 01:04:15;;;;;;;5.68;3.42;;;;;;;5.22;53.24;95175.84;5113471;28;20031;-69
2022/04/14 01:06:41;;;;;;;6.32;4.20;;;;;;;5.19;52.93;95176.03;5113253;28;20031;-70
2022/04/14 01:09:16;;;;;;;6.85;4.00;;;;;;;5.15;52.98;95174.53;5130365;28;20034;-69
2022/04/14 01:11:43;;;;;;;5.80;3.70;;;;;;;5.11;53.09;95175.63;5114640;28;20036;-70
2022/04/14 01:14:20;;;;;;;4.47;3.10;;;;;;;5.11;53.00;95180.78;5131764;27;20058;-69
2022/04/14 01:16:46;;;;;;;5.30;3.08;;;;;;;5.14;52.97;95183.19;5096766;28;20117;-69
2022/04/14 01:19:12;;;;;;;5.45;3.13;;;;;;;5.06;53.06;95183.59;5113220;28;20037;-69
2022/04/14 01:21:37;;;;;;;4.03;2.85;;;;;;;5.11;53.01;95198.81;5113015;28;20039;-69
2022/04/14 01:24:03;;;;;;;4.95;3.42;;;;;;;5.05;53.61;95191.44;5113262;28;20031;-69
2022/04/14 01:26:28;;;;;;;5.53;3.33;;;;;;;5.03;53.46;95193.25;5113168;28;20433;-69
2022/04/14 01:28:53;;;;;;;4.63;3.35;;;;;;;4.95;53.59;95198.81;5130032;27;20095;-69
2022/04/14 01:31:19;;;;;;;4.80;3.17;;;;;;;5.00;53.16;95201.16;5131432;27;20034;-69
2022/04/14 01:33:44;;;;;;;5.28;3.03;;;;;;;4.97;53.12;95209.88;5130187;28;20019;-69
2022/04/14 01:36:10;;;;;;;5.35;3.30;;;;;;;4.89;53.28;95205.13;5131146;27;20031;-69
2022/04/14 01:38:36;;;;;;;5.72;3.50;;;;;;;4.84;53.45;95191.66;5130242;28;20038;-69
2022/04/14 01:41:02;;;;;;;4.97;3.00;;;;;;;4.86;53.49;95196.75;5122860;28;20051;-69
2022/04/14 01:43:27;;;;;;;4.93;3.28;;;;;;;4.75;54.04;95192.16;5092602;28;20076;-69
2022/04/14 01:45:53;;;;;;;4.15;3.25;;;;;;;4.73;54.10;95195.75;5113450;28;20039;-69
2022/04/14 01:48:18;;;;;;;4.97;3.42;;;;;;;4.58;54.82;95185.34;5113296;28;20024;-69
2022/04/14 01:50:44;;;;;;;5.28;3.33;;;;;;;4.58;55.44;95192.25;5113252;28;20043;-69
2022/04/14 01:53:09;;;;;;;5.95;3.70;;;;;;;4.51;55.31;95186.59;5114373;28;20024;-69
2022/04/14 01:55:35;;;;;;;5.72;3.80;;;;;;;4.42;56.03;95187.06;5114923;28;20509;-69
2022/04/14 01:58:00;;;;;;;5.95;3.88;;;;;;;4.42;55.76;95202.50;5114277;28;20035;-69
2022/04/14 02:00:26;;;;;;;6.28;4.00;;;;;;;4.32;56.55;95207.31;5100690;28;20036;-69
2022/04/14 02:02:51;;;;;;;5.07;3.72;;;;;;;4.28;56.44;95200.66;5112952;28;20036;-69
2022/04/14 02:05:16;;;;;;;5.20;3.20;;;;;;;4.29;56.44;95207.47;5113206;28;20031;-69
2022/04/14 02:07:42;;;;;;;4.57;3.15;;;;;;;4.22;56.46;95206.94;5098951;28;20047;-69
2022/04/14 02:10:08;;;;;;;6.20;3.78;;;;;;;4.22;56.81;95200.97;5114571;28;20030;-69
2022/04/14 02:12:34;;;;;;;7.70;3.80;;;;;;;4.23;56.63;95208.63;5114262;28;20024;-69
2022/04/14 02:14:59;;;;;;;6.90;3.60;;;;;;;4.25;56.70;95198.25;5095783;28;20136;-69
2022/04/14 02:17:25;;;;;;;5.05;3.45;;;;;;;4.26;56.36;95207.63;5095702;28;20532;-69
2022/04/14 02:19:50;;;;;;;5.25;3.50;;;;;;;4.22;56.87;95209.53;5112548;28;20440;-69
2022/04/14 02:22:16;;;;;;;6.13;3.42;;;;;;;4.28;56.41;95208.38;5095547;28;20096;-69
2022/04/14 02:24:41;;;;;;;5.43;3.70;;;;;;;4.29;56.64;95207.47;5102107;27;20031;-69
2022/04/14 02:27:07;;;;;;;7.47;3.60;;;;;;;4.25;56.73;95193.09;5132738;27;20046;-69
2022/04/14 02:29:32;;;;;;;5.30;3.30;;;;;;;4.34;56.05;95209.78;5098146;28;20482;-69
2022/04/14 02:31:58;;;;;;;5.47;3.42;;;;;;;4.27;56.71;95199.00;5129855;27;20065;-69
2022/04/14 02:34:26;;;;;;;5.82;3.53;;;;;;;4.28;56.44;95197.25;5128814;27;20089;-69
2022/04/14 02:36:52;;;;;;;5.18;3.35;;;;;;;4.24;56.39;95189.72;5126737;27;20127;-70
2022/04/14 02:39:18;;;;;;;4.40;3.50;;;;;;;4.23;56.45;95198.34;5101631;27;20031;-69
2022/04/14 02:41:45;;;;;;;6.13;3.38;;;;;;;4.17;56.89;95200.38;5132355;27;20035;-69
2022/04/14 02:44:11;;;;;;;4.55;3.05;;;;;;;4.10;56.83;95191.34;5115967;27;20425;-69
2022/04/14 02:46:36;;;;;;;3.65;3.00;;;;;;;3.98;56.94;95191.06;5133495;27;20023;-69
2022/04/14 02:49:01;;;;;;;4.80;3.20;;;;;;;4.07;57.18;95192.31;5111323;28;20039;-69
2022/04/14 02:51:27;;;;;;;5.50;3.40;;;;;;;4.02;56.47;95173.72;5118602;27;20035;-69
2022/04/14 02:53:52;;;;;;;5.75;3.30;;;;;;;4.14;56.54;95197.97;5118037;27;20046;-69
2022/04/14 02:56:18;;;;;;;4.43;3.15;;;;;;;4.19;56.04;95196.81;5128714;27;20034;-69
2022/04/14 02:58:43;;;;;;;4.60;3.00;;;;;;;4.29;55.98;95202.34;5133397;27;20496;-69
2022/04/14 03:01:08;;;;;;;6.20;3.22;;;;;;;4.30;56.18;95201.41;5132443;27;20080;-69
2022/04/14 03:03:34;;;;;;;5.22;3.17;;;;;;;4.27;56.17;95191.28;5127958;27;20030;-69
2022/04/14 03:05:59;;;;;;;5.05;3.63;;;;;;;4.34;55.86;95200.34;5112957;28;20027;-69
2022/04/14 03:08:25;;;;;;;6.20;3.25;;;;;;;4.37;55.78;95196.78;5112954;28;20022;-69
2022/04/14 03:10:50;;;;;;;5.55;3.25;;;;;;;4.40;56.35;95197.47;5095499;27;20398;-69
2022/04/14 03:13:16;;;;;;;4.85;3.05;;;;;;;4.38;55.55;95201.03;5097730;28;20512;-69
2022/04/14 03:15:42;;;;;;;4.53;3.10;;;;;;;4.38;55.60;95201.84;5107795;27;20031;-69
2022/04/14 03:18:07;;;;;;;4.63;3.20;;;;;;;4.33;55.36;95193.53;5124811;27;20038;-69
2022/04/14 03:20:33;;;;;;;4.15;3.00;;;;;;;4.25;56.20;95191.34;5115634;27;20399;-69
2022/04/14 03:22:58;;;;;;;4.88;3.45;;;;;;;4.24;55.96;95209.47;5093564;28;20035;-69
2022/04/14 03:25:24;;;;;;;5.25;3.50;;;;;;;4.23;56.23;95197.50;5115314;27;20383;-69
2022/04/14 03:27:49;;;;;;;4.18;3.20;;;;;;;4.15;56.58;95191.91;5118531;27;20336;-69
2022/04/14 03:30:15;;;;;;;4.35;3.03;;;;;;;4.14;56.57;95208.25;5097891;27;20034;-69
2022/04/14 03:32:44;;;;;;;4.70;3.38;;;;;;;4.01;56.84;95197.75;5096044;27;20043;-69
2022/04/14 03:35:10;;;;;;;4.53;3.30;;;;;;;4.12;56.67;95215.22;5111383;27;20031;-69
2022/04/14 03:37:36;;;;;;;4.57;3.17;;;;;;;4.00;57.19;95209.78;5085278;28;20055;-69
2022/04/14 03:40:03;;;;;;;5.80;2.88;;;;;;;4.07;57.04;95212.03;5123518;27;20099;-69
2022/04/14 03:42:28;;;;;;;5.28;3.33;;;;;;;4.07;56.79;95204.31;5132773;27;20031;-69
2022/04/14 03:44:53;;;;;;;5.25;3.10;;;;;;;4.08;56.85;95190.59;5110402;28;20028;-70
2022/04/14 03:47:19;;;;;;;5.25;2.60;;;;;;;4.13;57.10;95209.19;5094026;28;20050;-69
2022/04/14 03:49:44;;;;;;;4.03;3.15;;;;;;;4.16;56.42;95209.03;5094349;28;20027;-69
2022/04/14 03:52:10;;;;;;;4.68;2.78;;;;;;;4.14;56.67;95213.41;5110869;28;20039;-69
2022/04/14 03:54:35;;;;;;;4.10;3.00;;;;;;;4.20;56.62;95223.38;5125979;27;20034;-69
2022/04/14 03:57:00;;;;;;;5.75;3.47;;;;;;;4.10;56.80;95222.19;5129524;27;20034;-69
2022/04/14 03:59:26;;;;;;;5.15;3.33;;;;;;;4.13;56.59;95237.47;5132785;27;20092;-69
2022/04/14 04:01:51;;;;;;;6.70;4.40;;;;;;;4.16;55.73;95240.72;5129289;27;20497;-69
2022/04/14 04:04:17;;;;;;;5.13;3.25;;;;;;;4.16;56.30;95232.16;5131363;27;20031;-69
2022/04/14 04:06:43;;;;;;;6.30;3.47;;;;;;;4.15;56.54;95223.63;5131130;27;20073;-69
2022/04/14 04:09:09;;;;;;;5.38;3.20;;;;;;;4.19;56.98;95222.53;5130303;27;20023;-69
2022/04/14 04:11:34;;;;;;;4.45;2.80;;;;;;;4.17;57.07;95229.50;5129050;27;20061;-69
2022/04/14 04:13:59;;;;;;;6.28;2.85;;;;;;;4.25;56.81;95231.69;5113900;27;20031;-69
2022/04/14 04:16:25;;;;;;;4.53;3.15;;;;;;;4.24;56.58;95232.59;5119734;27;20039;-69
2022/04/14 04:18:50;;;;;;;4.57;3.20;;;;;;;4.22;56.48;95224.13;5131216;27;20506;-69
2022/04/14 04:21:16;;;;;;;5.63;3.20;;;;;;;4.29;56.36;95229.78;5130845;27;20417;-69
2022/04/14 04:23:41;;;;;;;4.50;3.10;;;;;;;4.26;56.55;95228.19;5124589;27;20019;-69
2022/04/14 04:26:06;;;;;;;4.13;3.15;;;;;;;4.18;57.17;95217.47;5147050;27;20058;-69
2022/04/14 04:28:32;;;;;;;4.75;3.08;;;;;;;4.26;56.54;95220.47;5150397;27;20437;-69
2022/04/14 04:30:57;;;;;;;4.93;2.85;;;;;;;4.33;56.10;95229.56;5129641;27;20458;-69
2022/04/14 04:33:23;;;;;;;5.35;3.40;;;;;;;4.46;56.21;95240.03;5120158;27;20027;-69
2022/04/14 04:35:52;;;;;;;10.50;6.68;;;;;;;4.28;56.50;95248.69;5109380;28;20028;-69
2022/04/14 04:38:17;;;;;;;10.57;6.25;;;;;;;4.30;56.03;95240.00;5113217;27;20047;-69
2022/04/14 04:40:42;;;;;;;8.55;6.57;;;;;;;4.69;55.58;95252.53;5130775;27;20038;-69
2022/04/14 04:43:14;;;;;;;9.93;6.45;;;;;;;5.43;53.12;95247.69;5130927;27;20078;-68
2022/04/14 04:45:39;;;;;;;;;;;;;;;6.09;51.40;95262.06;5095198;28;20084;-69
2022/04/14 04:48:05;;;;;;;10.52;7.05;;;;;;;6.91;50.25;95271.78;5111287;28;19919;-69
2022/04/14 04:50:31;;;;;;;11.57;6.53;;;;;;;7.63;47.47;95274.19;5093272;28;20071;-69
2022/04/14 04:52:56;;;;;;;10.13;5.50;;;;;;;8.15;46.25;95250.13;5126811;28;20035;-69
2022/04/14 04:55:22;;;;;;;6.85;4.20;;;;;;;9.07;45.16;95287.94;5102014;28;20077;-69
2022/04/14 04:57:47;;;;;;;7.20;4.30;;;;;;;9.75;43.95;95279.66;5144418;27;20042;-70
2022/04/14 05:00:16;;;;;;;5.28;3.20;;;;;;;10.28;42.49;95280.13;5127872;27;20023;-69
2022/04/14 05:02:41;;;;;;;5.18;3.83;;;;;;;10.82;41.30;95278.66;5126422;27;20520;-69
2022/04/14 05:05:07;;;;;;;4.90;3.47;;;;;;;11.25;38.75;95285.75;5129197;28;20031;-69
2022/04/14 05:07:33;;;;;;;4.93;3.63;;;;;;;12.10;37.30;95289.50;5122373;27;20043;-69
2022/04/14 05:09:58;;;;;;;4.30;2.95;;;;;;;12.50;37.34;95290.47;5106442;28;20027;-69
2022/04/14 05:12:23;;;;;;;4.38;2.97;;;;;;;13.04;36.97;95299.00;5101479;28;20039;-69
2022/04/14 05:14:49;;;;;;;4.45;3.17;;;;;;;13.17;36.52;95288.34;5119124;28;20023;-70
2022/04/14 05:17:14;;;;;;;11.38;5.75;;;;;;;13.12;35.50;95296.59;5130026;27;20035;-70
2022/04/14 05:19:40;;;;;;;11.93;6.43;;;;;;;12.76;34.79;95297.91;5121471;27;20031;-69
2022/04/14 05:22:05;;;;;;;11.43;5.72;;;;;;;12.40;36.95;95292.19;5124461;27;20031;-69
2022/04/14 05:24:31;;;;;;;7.82;3.10;;;;;;;12.15;36.77;95293.38;5128627;27;20049;-69
2022/04/14 05:26:56;;;;;;;5.93;3.00;;;;;;;12.00;37.95;95292.81;5133086;27;20055;-69
2022/04/14 05:29:22;;;;;;;6.45;3.17;;;;;;;11.83;38.11;95281.13;5123265;27;20058;-71
2022/04/14 05:31:48;;;;;;;4.50;2.80;;;;;;;11.50;37.68;95299.44;5082532;28;20159;-69
2022/04/14 05:34:13;;;;;;;5.13;3.00;;;;;;;11.28;38.25;95297.69;5116966;27;20043;-69
2022/04/14 05:36:39;;;;;;;4.03;2.90;;;;;;;11.06;38.95;95290.72;5107224;27;20051;-69
2022/04/14 05:39:04;;;;;;;4.35;3.00;;;;;;;10.90;39.52;95296.28;5132540;27;20023;-69
2022/04/14 05:41:29;;;;;;;3.70;2.70;;;;;;;10.80;40.09;95296.13;5130683;27;20485;-69
2022/04/14 05:43:56;;;;;;;3.90;2.35;;;;;;;10.79;39.99;95304.06;5119708;27;20623;-69
2022/04/14 05:46:22;;;;;;;4.00;2.53;;;;;;;10.68;39.87;95307.47;5124720;27;20038;-69
2022/04/14 05:48:48;;;;;;;5.28;2.88;;;;;;;10.65;40.58;95305.94;5130181;27;20027;-69
2022/04/14 05:51:14;;;;;;;4.55;2.95;;;;;;;10.69;40.17;95311.72;5132146;27;20173;-69
2022/04/14 05:53:39;;;;;;;3.85;2.60;;;;;;;10.80;39.75;95308.31;5112271;27;20034;-69
2022/04/14 05:56:05;;;;;;;4.32;2.65;;;;;;;10.84;39.94;95305.38;5130146;27;20035;-69
2022/04/14 05:58:30;;;;;;;4.78;2.50;;;;;;;10.82;40.15;95301.25;5130560;27;20393;-69
2022/04/14 06:00:56;;;;;;;3.58;2.58;;;;;;;10.90;39.53;95309.28;5131290;27;20031;-69
2022/04/14 06:03:21;;;;;;;5.88;2.50;;;;;;;10.88;40.09;95292.97;5130810;27;20027;-69
2022/04/14 06:05:47;;;;;;;4.32;2.67;;;;;;;11.08;39.04;95313.06;5129498;27;20039;-69
2022/04/14 06:08:12;;;;;;;4.30;2.83;;;;;;;11.17;39.18;95314.97;5130552;27;20534;-69
2022/04/14 06:10:38;;;;;;;4.05;2.50;;;;;;;11.09;39.02;95312.13;5132775;27;20489;-71
2022/04/14 06:13:04;;;;;;;3.65;2.72;;;;;;;11.17;38.76;95309.75;5130959;27;20027;-69
2022/04/14 06:15:31;;;;;;;5.75;2.85;;;;;;;11.22;39.71;95305.97;5111152;27;20378;-69
2022/04/14 06:17:56;;;;;;;3.85;2.88;;;;;;;11.35;39.64;95309.28;5130722;27;20451;-69
2022/04/14 06:20:22;;;;;;;3.42;2.45;;;;;;;11.49;40.22;95311.63;5129530;27;20038;-69
2022/04/14 06:22:47;;;;;;;4.55;2.90;;;;;;;11.68;40.45;95308.41;5132483;27;20089;-69
2022/04/14 06:25:13;;;;;;;3.50;2.75;;;;;;;11.83;39.09;95312.38;5130900;27;20027;-69
2022/04/14 06:27:40;;;;;;;5.00;2.70;;;;;;;11.87;38.66;95313.00;5135797;27;20031;-69
2022/04/14 06:30:07;;;;;;;3.17;2.72;;;;;;;11.98;38.37;95315.56;5111085;27;20028;-69
2022/04/14 06:32:32;;;;;;;4.45;2.60;;;;;;;12.05;38.18;95318.50;5131125;27;20023;-69
2022/04/14 06:34:57;;;;;;;4.82;2.67;;;;;;;12.11;38.00;95312.78;5131664;27;20060;-69
2022/04/14 06:37:23;;;;;;;4.85;2.90;;;;;;;12.21;38.02;95316.31;5130246;27;20039;-69
2022/04/14 06:39:48;;;;;;;3.90;2.80;;;;;;;12.35;37.76;95322.19;5114923;27;20034;-70
2022/04/14 06:42:15;;;;;;;4.82;2.90;;;;;;;12.51;36.79;95323.41;5131410;27;20054;-69
2022/04/14 06:44:40;;;;;;;5.07;3.08;;;;;;;12.53;36.72;95315.44;5105131;28;20023;-69
2022/04/14 06:47:06;;;;;;;4.55;3.13;;;;;;;12.51;36.51;95309.56;5101340;27;20032;-69
2022/04/14 06:49:32;;;;;;;4.30;3.47;;;;;;;12.71;36.11;95316.53;5127648;27;20047;-70
2022/04/14 06:51:57;;;;;;;6.97;2.90;;;;;;;12.83;35.39;95309.47;5125406;27;20254;-69
2022/04/14 06:54:23;;;;;;;6.10;3.08;;;;;;;12.93;34.99;95320.78;5123743;27;20027;-70
2022/04/14 06:56:48;;;;;;;4.00;2.95;;;;;;;12.97;35.56;95310.91;5139961;27;20460;-69
2022/04/14 06:59:14;;;;;;;6.72;2.83;;;;;;;13.14;34.78;95320.72;5128332;27;20023;-70
2022/04/14 07:01:39;;;;;;;4.63;2.85;;;;;;;13.18;34.65;95321.31;5145587;27;20027;-69
2022/04/14 07:04:06;;;;;;;4.00;2.97;;;;;;;13.08;34.93;95323.03;5133398;27;20031;-73
2022/04/14 07:06:31;;;;;;;3.90;2.80;;;;;;;13.07;34.93;95331.84;5138207;27;20031;-70
2022/04/14 07:08:57;;;;;;;7.57;3.15;;;;;;;13.12;34.87;95329.63;5130761;27;20058;-71
2022/04/14 07:11:22;;;;;;;3.92;2.97;;;;;;;12.94;35.25;95330.25;5131109;27;20049;-72
2022/04/14 07:13:47;;;;;;;5.00;3.10;;;;;;;12.89;35.68;95329.78;5128953;27;20031;-73
2022/04/14 07:16:13;;;;;;;7.38;3.30;;;;;;;12.94;35.87;95319.81;5107947;27;20028;-72
2022/04/14 07:18:40;;;;;;;5.15;3.33;;;;;;;13.09;35.45;95332.50;5130586;27;20488;-71
2022/04/14 07:21:06;;;;;;;6.90;3.28;;;;;;;13.10;34.91;95334.19;5130595;27;20051;-72
2022/04/14 07:23:31;;;;;;;9.57;3.40;;;;;;;13.03;35.61;95338.25;5129522;27;20070;-72
2022/04/14 07:25:57;;;;;;;4.53;3.20;;;;;;;13.13;35.00;95326.09;5110891;27;20099;-72
2022/04/14 07:28:22;;;;;;;4.57;3.35;;;;;;;13.28;34.98;95331.81;5127028;27;20026;-72
2022/04/14 07:30:47;;;;;;;4.80;3.10;;;;;;;13.36;35.36;95330.19;5131062;27;20512;-71
2022/04/14 07:33:13;;;;;;;4.28;3.15;;;;;;;13.40;34.21;95331.59;5112483;27;20023;-72
2022/04/14 07:35:38;;;;;;;3.97;3.00;;;;;;;13.30;33.97;95325.50;5112531;27;20038;-71
2022/04/14 07:38:05;;;;;;;6.55;3.13;;;;;;;13.26;34.32;95318.91;5095371;27;20700;-73
2022/04/14 07:40:30;;;;;;;5.60;3.33;;;;;;;13.10;34.96;95319.34;5129632;27;20031;-71
2022/04/14 07:42:57;;;;;;;4.93;3.30;;;;;;;13.18;35.19;95313.50;5131214;27;20038;-73
2022/04/14 07:45:22;;;;;;;4.55;3.30;;;;;;;13.14;34.21;95312.09;5132019;27;20019;-74
2022/04/14 07:47:48;;;;;;;5.00;3.60;;;;;;;13.26;34.65;95308.47;5131514;27;20043;-72
2022/04/14 07:50:21;;;;;;;4.93;3.50;;;;;;;13.48;35.68;95301.38;5113660;27;20116;-73
2022/04/14 07:52:47;;;;;;;6.50;3.30;;;;;;;13.70;34.68;95295.94;5130002;27;20031;-72
2022/04/14 07:55:20;;;;;;;5.85;3.58;;;;;;;13.80;34.51;95294.19;5131741;27;20465;-72
2022/04/14 07:57:45;;;;;;;4.75;3.28;;;;;;;13.94;34.36;95292.16;5096379;27;20096;-72
2022/04/14 08:00:11;;;;;;;6.15;3.13;;;;;;;14.17;34.05;95293.53;5113058;27;20027;-71
2022/04/14 08:02:48;;;;;;;4.65;3.13;;;;;;;14.29;33.82;95276.78;5130086;27;20028;-70
2022/04/14 08:05:14;;;;;;;6.25;3.38;;;;;;;14.52;33.44;95285.16;5127893;27;20074;-71
2022/04/14 08:07:39;;;;;;;6.25;3.60;;;;;;;14.63;33.34;95286.81;5110600;28;20431;-71
2022/04/14 08:10:05;;;;;;;5.40;3.72;;;;;;;14.81;33.40;95296.53;5110600;28;20024;-71
2022/04/14 08:12:30;;;;;;;8.70;4.03;;;;;;;14.74;33.41;95291.88;5127437;27;20486;-71
2022/04/14 08:14:56;;;;;;;7.30;3.95;;;;;;;14.76;33.77;95302.16;5109666;28;20027;-71
2022/04/14 08:17:21;;;;;;;16.85;4.35;;;;;;;14.58;35.16;95296.84;5110466;28;20063;-71
2022/04/14 08:19:46;;;;;;;10.68;4.15;;;;;;;14.46;33.56;95290.91;5111989;28;20112;-71
2022/04/14 08:22:12;;;;;;;8.90;4.35;;;;;;;14.09;34.56;95298.59;5110304;28;20031;-72
2022/04/14 08:24:37;;;;;;;9.05;3.65;;;;;;;14.09;34.07;95286.38;5127492;27;20085;-71
2022/04/14 08:27:03;;;;;;;10.93;4.28;;;;;;;14.26;35.54;95291.88;5111838;28;20031;-71
2022/04/14 08:29:29;;;;;;;8.60;4.82;;;;;;;14.44;35.56;95292.84;5111849;28;20031;-71
2022/04/14 08:31:56;;;;;;;8.88;4.75;;;;;;;14.52;34.72;95297.41;5127270;27;20107;-71
2022/04/14 08:34:21;;;;;;;6.75;4.32;;;;;;;14.49;34.63;95295.88;5093521;28;20051;-72
2022/04/14 08:36:46;;;;;;;7.95;4.97;;;;;;;14.55;34.99;95297.13;5093043;28;20058;-71
2022/04/14 08:39:12;;;;;;;6.40;4.30;;;;;;;14.57;34.15;95294.34;5127442;27;20028;-71
2022/04/14 08:41:37;;;;;;;13.80;4.90;;;;;;;14.57;34.37;95297.81;5127107;27;20501;-71
2022/04/14 08:44:05;;;;;;;11.25;4.53;;;;;;;14.69;33.87;95299.31;5093286;28;20054;-71
2022/04/14 08:46:30;;;;;;;10.70;4.68;;;;;;;14.75;34.32;95290.88;5111361;28;20413;-71
2022/04/14 08:48:59;;;;;;;6.63;4.43;;;;;;;14.86;34.06;95283.84;5109967;28;20080;-72
2022/04/14 08:51:29;;;;;;;7.70;5.57;;;;;;;14.92;33.85;95298.97;5093660;28;20035;-71
2022/04/14 08:53:55;;;;;;;10.03;5.30;;;;;;;15.02;33.75;95294.56;5093037;28;20114;-72
2022/04/14 08:56:21;;;;;;;8.07;4.93;;;;;;;14.91;33.00;95271.19;5126789;28;20424;-71
2022/04/14 08:58:46;;;;;;;10.35;5.30;;;;;;;15.03;34.34;95279.69;5093080;28;20027;-71
2022/04/14 09:01:13;;;;;;;6.63;4.53;;;;;;;15.07;32.12;95279.25;5076086;28;20634;-71
2022/04/14 09:03:38;;;;;;;7.88;4.05;;;;;;;15.15;32.61;95276.72;5111082;28;20039;-71
2022/04/14 09:06:04;;;;;;;6.20;4.15;;;;;;;15.19;32.01;95280.72;5092994;28;20031;-72
2022/04/14 09:08:29;;;;;;;7.88;4.93;;;;;;;15.20;31.94;95266.66;5127019;28;20413;-72
2022/04/14 09:10:55;;;;;;;13.00;5.38;;;;;;;15.15;32.23;95249.75;5111053;28;20386;-71
2022/04/14 09:13:20;;;;;;;7.40;4.57;;;;;;;15.27;32.96;95263.47;5092772;28;20065;-71
2022/04/14 09:15:47;;;;;;;7.30;4.10;;;;;;;15.15;32.15;95258.41;5109873;28;20437;-72
2022/04/14 09:18:13;;;;;;;8.68;4.30;;;;;;;15.31;32.91;95256.97;5109730;28;20022;-72
2022/04/14 09:20:41;;;;;;;7.13;4.13;;;;;;;15.45;32.90;95259.09;5092728;28;20031;-72
2022/04/14 09:23:18;;;;;;;11.60;4.03;;;;;;;15.63;32.32;95249.50;5093079;28;20024;-72
2022/04/14 09:25:44;;;;;;;7.68;4.53;;;;;;;15.62;32.17;95247.81;5109784;28;20039;-72
2022/04/14 09:28:10;;;;;;;12.77;4.10;;;;;;;15.71;32.26;95253.19;5109653;28;20046;-72
2022/04/14 09:30:36;;;;;;;6.82;3.53;;;;;;;15.66;31.21;95243.16;5109539;28;20044;-72
2022/04/14 09:33:02;;;;;;;5.78;3.65;;;;;;;15.72;30.60;95245.19;5109632;28;20086;-72
2022/04/14 09:35:31;;;;;;;5.40;3.35;;;;;;;15.67;29.08;95257.88;5109997;28;20546;-72
2022/04/14 09:38:07;;;;;;;6.53;3.28;;;;;;;15.69;29.77;95242.06;5093296;28;20047;-72
2022/04/14 09:40:37;;;;;;;4.07;3.10;;;;;;;15.63;30.27;95239.03;5126712;28;20031;-72
2022/04/14 09:43:04;;;;;;;9.85;3.47;;;;;;;15.77;29.67;95242.16;5076973;28;20035;-72
2022/04/14 09:45:30;;;;;;;6.38;3.20;;;;;;;15.79;31.15;95235.75;5109850;28;20417;-72
2022/04/14 09:48:14;;;;;;;8.20;3.83;;;;;;;15.90;31.54;95229.47;5092534;28;20051;-72
2022/04/14 09:50:40;;;;;;;9.32;3.65;;;;;;;16.08;30.91;95230.31;5110861;28;20506;-72
2022/04/14 09:53:09;;;;;;;5.30;3.00;;;;;;;16.18;29.79;95234.63;5109539;28;20028;-72
2022/04/14 09:55:42;;;;;;;6.85;3.05;;;;;;;16.23;29.88;95227.97;5111211;28;20030;-72
2022/04/14 09:58:18;;;;;;;4.93;3.03;;;;;;;16.28;29.47;95224.91;5075886;28;20410;-72
2022/04/14 10:00:47;;;;;;;4.78;3.05;;;;;;;16.42;29.93;95224.34;5099002;28;20023;-71
2022/04/14 10:03:16;;;;;;;4.40;3.10;;;;;;;16.57;28.66;95229.84;5110721;28;20038;-74
2022/04/14 10:05:42;;;;;;;6.72;2.85;;;;;;;16.56;28.36;95216.91;5111407;28;20031;-73
2022/04/14 10:08:08;;;;;;;4.55;2.60;;;;;;;16.62;27.79;95214.47;5131464;27;20079;-70
2022/04/14 10:10:39;;;;;;;3.60;2.40;;;;;;;16.65;27.59;95210.72;5132406;27;20027;-73
2022/04/14 10:13:08;;;;;;;5.88;3.10;;;;;;;16.68;27.15;95213.84;5109937;27;20035;-73
2022/04/14 10:15:36;;;;;;;4.45;2.65;;;;;;;16.72;27.85;95201.28;5115937;27;20027;-70
2022/04/14 10:18:06;;;;;;;5.15;2.50;;;;;;;16.75;26.73;95207.03;5115567;27;20019;-69
2022/04/14 10:20:32;;;;;;;;;;;;;;;16.75;27.47;95206.22;5099432;27;20461;-72
2022/04/14 10:22:59;;;;;;;5.95;2.50;;;;;;;16.71;27.83;95203.06;5133276;27;19919;-71
2022/04/14 10:25:25;;;;;;;7.10;2.88;;;;;;;16.86;27.30;95207.78;5129156;27;20102;-71
2022/04/14 10:27:52;;;;;;;5.97;2.92;;;;;;;16.99;27.51;95197.66;5114284;27;20035;-72
2022/04/14 10:30:20;;;;;;;3.67;2.50;;;;;;;17.05;27.18;95196.22;5129885;27;20015;-72
2022/04/14 10:32:46;;;;;;;5.45;2.50;;;;;;;17.17;27.58;95195.78;5112895;27;20047;-71
2022/04/14 10:35:11;;;;;;;4.07;2.58;;;;;;;17.20;27.31;95197.28;5113032;27;20027;-74
2022/04/14 10:37:41;;;;;;;6.32;2.45;;;;;;;17.22;26.90;95184.81;5112568;27;20059;-70
2022/04/14 10:40:09;;;;;;;5.07;3.30;;;;;;;17.29;27.01;95195.50;5115649;27;20558;-71
2022/04/14 10:42:34;;;;;;;4.88;3.60;;;;;;;17.32;26.62;95185.47;5130899;27;20031;-72
2022/04/14 10:45:00;;;;;;;5.15;2.85;;;;;;;17.47;27.37;95190.13;5114468;27;20538;-70
2022/04/14 10:47:32;;;;;;;5.07;2.50;;;;;;;17.55;26.31;95191.00;5131574;27;20447;-72
2022/04/14 10:49:57;;;;;;;4.82;2.40;;;;;;;17.60;26.13;95185.22;5131802;27;20031;-70
2022/04/14 10:52:27;;;;;;;4.03;2.60;;;;;;;17.70;26.71;95190.34;5132251;27;20038;-71
2022/04/14 10:54:59;;;;;;;4.30;2.80;;;;;;;17.55;25.91;95187.50;5131245;27;20408;-71
2022/04/14 10:57:38;;;;;;;3.42;2.42;;;;;;;17.50;26.20;95185.38;5093072;27;20421;-72
2022/04/14 11:00:19;;;;;;;4.63;2.40;;;;;;;17.62;27.49;95188.53;5109912;27;20405;-70
2022/04/14 11:03:03;;;;;;;;;;;;;;;17.69;26.86;95189.53;5129736;27;20047;-73
2022/04/14 11:05:38;;;;;;;6.20;2.40;;;;;;;17.58;26.31;95181.97;5131746;27;20433;-72
2022/04/14 11:08:29;;;;;;;4.82;2.80;;;;;;;17.67;26.51;95181.00;5129503;27;20035;-72
2022/04/14 11:11:08;;;;;;;;;;;;;;;17.69;25.91;95181.66;5131215;27;20027;-71
2022/04/14 11:14:01;;;;;;;4.18;3.03;;;;;;;17.66;26.83;95184.59;5132177;27;19911;-72
2022/04/14 11:16:47;;;;;;;6.97;2.67;;;;;;;17.74;25.65;95178.53;5129229;27;20038;-72
2022/04/14 11:19:31;;;;;;;6.80;2.67;;;;;;;17.74;25.63;95160.94;5128023;27;20106;-71
2022/04/14 11:22:04;;;;;;;4.35;2.25;;;;;;;17.77;25.63;95173.75;5113486;27;20031;-71
2022/04/14 11:24:36;;;;;;;3.90;2.35;;;;;;;17.83;25.46;95174.97;5129796;27;20365;-72
2022/04/14 11:27:28;;;;;;;4.22;2.38;;;;;;;17.78;24.37;95170.19;5131795;27;20489;-72
2022/04/14 11:29:57;;;;;;;4.18;2.22;;;;;;;17.64;24.79;95176.88;5128822;27;20031;-72
2022/04/14 11:32:39;;;;;;;3.90;2.30;;;;;;;17.65;25.09;95169.81;5131712;27;20042;-71
2022/04/14 11:35:13;;;;;;;2.85;2.10;;;;;;;17.59;25.80;95163.41;5132075;27;20055;-72